sensor_id;sensor_type;location;lat;lon;timestamp;temperature;humidity
463;DHT22;218;51.902;9.542;2022-08-03T00:01:54;20.30;1.00
463;DHT22;218;51.902;9.542;2022-08-03T00:04:21;20.30;1.00
463;DHT22;218;51.902;9.542;2022-08-03T00:06:49;20.20;1.00
463;DHT22;218;51.902;9.542;2022-08-03T00:09:17;20.20;1.00
463;DHT22;218;51.902;9.542;2022-08-03T00:11:44;20.10;1.00
463;DHT22;218;51.902;9.542;2022-08-03T00:14:11;20.10;1.00
463;DHT22;218;51.902;9.542;2022-08-03T00:16:39;20.10;1.00
463;DHT22;218;51.902;9.542;2022-08-03T00:19:06;20.00;1.00
463;DHT22;218;51.902;9.542;2022-08-03T00:21:33;20.00;1.00
463;DHT22;218;51.902;9.542;2022-08-03T00:24:00;19.90;1.00
463;DHT22;218;51.902;9.542;2022-08-03T00:26:29;19.90;1.00
463;DHT22;218;51.902;9.542;2022-08-03T00:28:56;19.90;1.00
463;DHT22;218;51.902;9.542;2022-08-03T00:31:25;19.80;1.00
463;DHT22;218;51.902;9.542;2022-08-03T00:33:52;19.80;1.00
463;DHT22;218;51.902;9.542;2022-08-03T00:36:22;19.80;1.00
463;DHT22;218;51.902;9.542;2022-08-03T00:38:51;19.70;1.00
463;DHT22;218;51.902;9.542;2022-08-03T00:41:24;19.70;1.00
463;DHT22;218;51.902;9.542;2022-08-03T00:44:22;19.60;1.00
463;DHT22;218;51.902;9.542;2022-08-03T00:46:49;19.60;1.00
463;DHT22;218;51.902;9.542;2022-08-03T00:49:17;19.60;1.00
463;DHT22;218;51.902;9.542;2022-08-03T00:51:44;19.60;1.00
463;DHT22;218;51.902;9.542;2022-08-03T00:54:11;19.50;1.00
463;DHT22;218;51.902;9.542;2022-08-03T00:56:39;19.50;1.00
463;DHT22;218;51.902;9.542;2022-08-03T00:59:09;19.40;1.00
463;DHT22;218;51.902;9.542;2022-08-03T01:01:37;19.40;1.00
463;DHT22;218;51.902;9.542;2022-08-03T01:04:09;19.40;1.00
463;DHT22;218;51.902;9.542;2022-08-03T01:06:42;19.40;1.00
463;DHT22;218;51.902;9.542;2022-08-03T01:09:15;19.30;1.00
463;DHT22;218;51.902;9.542;2022-08-03T01:11:50;19.30;1.00
463;DHT22;218;51.902;9.542;2022-08-03T01:14:23;19.30;1.00
463;DHT22;218;51.902;9.542;2022-08-03T01:16:58;19.20;1.00
463;DHT22;218;51.902;9.542;2022-08-03T01:19:44;19.20;1.00
463;DHT22;218;51.902;9.542;2022-08-03T01:22:34;19.10;1.00
463;DHT22;218;51.902;9.542;2022-08-03T01:25:07;19.10;1.00
463;DHT22;218;51.902;9.542;2022-08-03T01:27:50;19.10;1.00
463;DHT22;218;51.902;9.542;2022-08-03T01:30:24;19.00;1.00
463;DHT22;218;51.902;9.542;2022-08-03T01:32:57;19.00;1.00
463;DHT22;218;51.902;9.542;2022-08-03T01:35:31;19.00;1.00
463;DHT22;218;51.902;9.542;2022-08-03T01:38:02;18.90;1.00
463;DHT22;218;51.902;9.542;2022-08-03T01:40:31;18.90;1.00
463;DHT22;218;51.902;9.542;2022-08-03T01:43:02;18.90;1.00
463;DHT22;218;51.902;9.542;2022-08-03T01:45:32;18.80;1.00
463;DHT22;218;51.902;9.542;2022-08-03T01:48:00;18.80;1.00
463;DHT22;218;51.902;9.542;2022-08-03T01:50:31;18.80;1.00
463;DHT22;218;51.902;9.542;2022-08-03T01:52:59;18.70;1.00
463;DHT22;218;51.902;9.542;2022-08-03T01:55:28;18.70;1.00
463;DHT22;218;51.902;9.542;2022-08-03T01:57:59;18.70;1.00
463;DHT22;218;51.902;9.542;2022-08-03T02:00:30;18.70;1.00
463;DHT22;218;51.902;9.542;2022-08-03T02:02:59;18.60;1.00
463;DHT22;218;51.902;9.542;2022-08-03T02:05:28;18.60;1.00
463;DHT22;218;51.902;9.542;2022-08-03T02:07:56;18.60;1.00
463;DHT22;218;51.902;9.542;2022-08-03T02:10:27;18.60;1.00
463;DHT22;218;51.902;9.542;2022-08-03T02:12:58;18.60;1.00
463;DHT22;218;51.902;9.542;2022-08-03T02:15:27;18.50;1.00
463;DHT22;218;51.902;9.542;2022-08-03T02:17:58;18.50;1.00
463;DHT22;218;51.902;9.542;2022-08-03T02:20:26;18.50;1.00
463;DHT22;218;51.902;9.542;2022-08-03T02:22:54;18.50;1.00
463;DHT22;218;51.902;9.542;2022-08-03T02:25:22;18.40;1.00
463;DHT22;218;51.902;9.542;2022-08-03T02:27:54;18.40;1.00
463;DHT22;218;51.902;9.542;2022-08-03T02:30:23;18.40;1.00
463;DHT22;218;51.902;9.542;2022-08-03T02:32:54;18.40;1.00
463;DHT22;218;51.902;9.542;2022-08-03T02:35:25;18.40;1.00
463;DHT22;218;51.902;9.542;2022-08-03T02:37:59;18.30;1.00
463;DHT22;218;51.902;9.542;2022-08-03T02:40:28;18.30;1.00
463;DHT22;218;51.902;9.542;2022-08-03T02:42:59;18.30;1.00
463;DHT22;218;51.902;9.542;2022-08-03T02:45:28;18.30;1.00
463;DHT22;218;51.902;9.542;2022-08-03T02:47:59;18.20;1.00
463;DHT22;218;51.902;9.542;2022-08-03T02:50:33;18.20;1.00
463;DHT22;218;51.902;9.542;2022-08-03T02:53:02;18.20;1.00
463;DHT22;218;51.902;9.542;2022-08-03T02:55:32;18.10;1.00
463;DHT22;218;51.902;9.542;2022-08-03T02:58:02;18.10;1.00
463;DHT22;218;51.902;9.542;2022-08-03T03:00:30;18.10;1.00
463;DHT22;218;51.902;9.542;2022-08-03T03:03:00;18.10;1.00
463;DHT22;218;51.902;9.542;2022-08-03T03:05:29;18.10;1.00
463;DHT22;218;51.902;9.542;2022-08-03T03:07:59;18.00;1.00
463;DHT22;218;51.902;9.542;2022-08-03T03:10:28;18.00;1.00
463;DHT22;218;51.902;9.542;2022-08-03T03:12:57;18.00;1.00
463;DHT22;218;51.902;9.542;2022-08-03T03:15:26;18.00;1.00
463;DHT22;218;51.902;9.542;2022-08-03T03:17:54;18.00;1.00
463;DHT22;218;51.902;9.542;2022-08-03T03:20:23;18.00;1.00
463;DHT22;218;51.902;9.542;2022-08-03T03:22:54;17.90;1.00
463;DHT22;218;51.902;9.542;2022-08-03T03:25:23;17.90;1.00
463;DHT22;218;51.902;9.542;2022-08-03T03:27:50;17.90;1.00
463;DHT22;218;51.902;9.542;2022-08-03T03:30:18;17.90;1.00
463;DHT22;218;51.902;9.542;2022-08-03T03:32:45;17.90;1.00
463;DHT22;218;51.902;9.542;2022-08-03T03:35:13;17.90;1.00
463;DHT22;218;51.902;9.542;2022-08-03T03:37:41;17.90;1.00
463;DHT22;218;51.902;9.542;2022-08-03T03:40:09;17.90;1.00
463;DHT22;218;51.902;9.542;2022-08-03T03:42:38;17.90;1.00
463;DHT22;218;51.902;9.542;2022-08-03T03:45:07;17.80;1.00
463;DHT22;218;51.902;9.542;2022-08-03T03:47:35;17.80;1.00
463;DHT22;218;51.902;9.542;2022-08-03T03:50:03;17.80;1.00
463;DHT22;218;51.902;9.542;2022-08-03T03:52:31;17.80;1.00
463;DHT22;218;51.902;9.542;2022-08-03T03:54:59;17.80;1.00
463;DHT22;218;51.902;9.542;2022-08-03T03:57:26;17.80;1.00
463;DHT22;218;51.902;9.542;2022-08-03T03:59:55;17.80;1.00
463;DHT22;218;51.902;9.542;2022-08-03T04:02:23;17.70;1.00
463;DHT22;218;51.902;9.542;2022-08-03T04:04:50;17.70;1.00
463;DHT22;218;51.902;9.542;2022-08-03T04:07:42;17.70;1.00
463;DHT22;218;51.902;9.542;2022-08-03T04:10:30;17.70;1.00
463;DHT22;218;51.902;9.542;2022-08-03T04:13:17;17.80;1.00
463;DHT22;218;51.902;9.542;2022-08-03T04:19:29;17.90;1.00
463;DHT22;218;51.902;9.542;2022-08-03T04:22:23;18.00;1.00
463;DHT22;218;51.902;9.542;2022-08-03T04:24:54;18.10;1.00
463;DHT22;218;51.902;9.542;2022-08-03T04:27:30;18.10;1.00
463;DHT22;218;51.902;9.542;2022-08-03T04:30:02;18.20;1.00
463;DHT22;218;51.902;9.542;2022-08-03T04:32:30;18.30;1.00
463;DHT22;218;51.902;9.542;2022-08-03T04:34:59;18.30;1.00
463;DHT22;218;51.902;9.542;2022-08-03T04:37:32;18.40;1.00
463;DHT22;218;51.902;9.542;2022-08-03T04:40:02;18.40;1.00
463;DHT22;218;51.902;9.542;2022-08-03T04:42:33;18.60;1.00
463;DHT22;218;51.902;9.542;2022-08-03T04:45:02;18.60;1.00
463;DHT22;218;51.902;9.542;2022-08-03T04:47:31;18.70;1.00
463;DHT22;218;51.902;9.542;2022-08-03T04:50:01;18.70;1.00
463;DHT22;218;51.902;9.542;2022-08-03T04:52:29;18.80;1.00
463;DHT22;218;51.902;9.542;2022-08-03T04:54:56;18.90;1.00
463;DHT22;218;51.902;9.542;2022-08-03T04:57:23;19.00;1.00
463;DHT22;218;51.902;9.542;2022-08-03T04:59:51;19.00;1.00
463;DHT22;218;51.902;9.542;2022-08-03T05:02:19;19.10;1.00
463;DHT22;218;51.902;9.542;2022-08-03T05:04:46;19.10;1.00
463;DHT22;218;51.902;9.542;2022-08-03T05:07:16;19.20;1.00
463;DHT22;218;51.902;9.542;2022-08-03T05:09:43;19.30;1.00
463;DHT22;218;51.902;9.542;2022-08-03T05:12:10;19.30;1.00
463;DHT22;218;51.902;9.542;2022-08-03T05:14:38;19.40;1.00
463;DHT22;218;51.902;9.542;2022-08-03T05:17:05;19.40;1.00
463;DHT22;218;51.902;9.542;2022-08-03T05:19:32;19.50;1.00
463;DHT22;218;51.902;9.542;2022-08-03T05:21:59;19.50;1.00
463;DHT22;218;51.902;9.542;2022-08-03T05:24:27;19.60;1.00
463;DHT22;218;51.902;9.542;2022-08-03T05:26:54;19.60;1.00
463;DHT22;218;51.902;9.542;2022-08-03T05:29:21;19.70;1.00
463;DHT22;218;51.902;9.542;2022-08-03T05:31:48;19.70;1.00
463;DHT22;218;51.902;9.542;2022-08-03T05:34:15;19.80;1.00
463;DHT22;218;51.902;9.542;2022-08-03T05:36:42;19.80;1.00
463;DHT22;218;51.902;9.542;2022-08-03T05:39:09;19.80;1.00
463;DHT22;218;51.902;9.542;2022-08-03T05:41:37;19.90;1.00
463;DHT22;218;51.902;9.542;2022-08-03T05:44:05;19.90;1.00
463;DHT22;218;51.902;9.542;2022-08-03T05:46:32;20.00;1.00
463;DHT22;218;51.902;9.542;2022-08-03T05:48:59;20.00;1.00
463;DHT22;218;51.902;9.542;2022-08-03T05:51:26;20.10;1.00
463;DHT22;218;51.902;9.542;2022-08-03T05:53:53;20.10;1.00
463;DHT22;218;51.902;9.542;2022-08-03T05:56:21;20.20;1.00
463;DHT22;218;51.902;9.542;2022-08-03T05:58:51;20.20;1.00
463;DHT22;218;51.902;9.542;2022-08-03T06:01:18;20.30;1.00
463;DHT22;218;51.902;9.542;2022-08-03T06:03:47;20.40;1.00
463;DHT22;218;51.902;9.542;2022-08-03T06:06:15;20.40;1.00
463;DHT22;218;51.902;9.542;2022-08-03T06:08:43;20.50;1.00
463;DHT22;218;51.902;9.542;2022-08-03T06:11:10;20.60;1.00
463;DHT22;218;51.902;9.542;2022-08-03T06:13:38;20.60;1.00
463;DHT22;218;51.902;9.542;2022-08-03T06:16:06;20.70;1.00
463;DHT22;218;51.902;9.542;2022-08-03T06:18:33;20.80;1.00
463;DHT22;218;51.902;9.542;2022-08-03T06:21:00;20.80;1.00
463;DHT22;218;51.902;9.542;2022-08-03T06:23:27;20.90;1.00
463;DHT22;218;51.902;9.542;2022-08-03T06:25:55;20.90;1.00
463;DHT22;218;51.902;9.542;2022-08-03T06:28:22;21.00;1.00
463;DHT22;218;51.902;9.542;2022-08-03T06:30:49;21.10;1.00
463;DHT22;218;51.902;9.542;2022-08-03T06:33:19;21.10;1.00
463;DHT22;218;51.902;9.542;2022-08-03T06:35:46;21.20;1.00
463;DHT22;218;51.902;9.542;2022-08-03T06:38:13;21.30;1.00
463;DHT22;218;51.902;9.542;2022-08-03T06:40:40;21.40;1.00
463;DHT22;218;51.902;9.542;2022-08-03T06:43:07;21.40;1.00
463;DHT22;218;51.902;9.542;2022-08-03T06:45:34;21.50;1.00
463;DHT22;218;51.902;9.542;2022-08-03T06:48:03;21.50;1.00
463;DHT22;218;51.902;9.542;2022-08-03T06:50:32;21.60;1.00
463;DHT22;218;51.902;9.542;2022-08-03T06:53:00;21.70;1.00
463;DHT22;218;51.902;9.542;2022-08-03T06:55:27;21.80;1.00
463;DHT22;218;51.902;9.542;2022-08-03T06:57:56;21.80;1.00
463;DHT22;218;51.902;9.542;2022-08-03T07:00:23;21.90;1.00
463;DHT22;218;51.902;9.542;2022-08-03T07:02:51;22.00;1.00
463;DHT22;218;51.902;9.542;2022-08-03T07:05:18;22.00;1.00
463;DHT22;218;51.902;9.542;2022-08-03T07:07:46;22.10;1.00
463;DHT22;218;51.902;9.542;2022-08-03T07:10:13;22.20;1.00
463;DHT22;218;51.902;9.542;2022-08-03T07:12:40;22.20;1.00
463;DHT22;218;51.902;9.542;2022-08-03T07:15:08;22.30;1.00
463;DHT22;218;51.902;9.542;2022-08-03T07:17:35;22.40;1.00
463;DHT22;218;51.902;9.542;2022-08-03T07:20:04;22.50;1.00
463;DHT22;218;51.902;9.542;2022-08-03T07:22:32;22.60;1.00
463;DHT22;218;51.902;9.542;2022-08-03T07:25:01;22.70;1.00
463;DHT22;218;51.902;9.542;2022-08-03T07:27:29;22.70;1.00
463;DHT22;218;51.902;9.542;2022-08-03T07:29:58;22.80;1.00
463;DHT22;218;51.902;9.542;2022-08-03T07:32:26;22.90;1.00
463;DHT22;218;51.902;9.542;2022-08-03T07:34:55;23.00;1.00
463;DHT22;218;51.902;9.542;2022-08-03T07:37:22;23.10;1.00
463;DHT22;218;51.902;9.542;2022-08-03T07:39:50;23.20;1.00
463;DHT22;218;51.902;9.542;2022-08-03T07:42:20;23.30;1.00
463;DHT22;218;51.902;9.542;2022-08-03T07:44:48;23.40;1.00
463;DHT22;218;51.902;9.542;2022-08-03T07:47:17;23.50;1.00
463;DHT22;218;51.902;9.542;2022-08-03T07:49:45;23.60;1.00
463;DHT22;218;51.902;9.542;2022-08-03T07:52:14;23.70;1.00
463;DHT22;218;51.902;9.542;2022-08-03T07:54:58;23.80;1.00
463;DHT22;218;51.902;9.542;2022-08-03T07:57:27;24.00;1.00
463;DHT22;218;51.902;9.542;2022-08-03T07:59:54;24.10;1.00
463;DHT22;218;51.902;9.542;2022-08-03T08:02:21;24.20;1.00
463;DHT22;218;51.902;9.542;2022-08-03T08:04:48;24.30;1.00
463;DHT22;218;51.902;9.542;2022-08-03T08:07:15;24.40;1.00
463;DHT22;218;51.902;9.542;2022-08-03T08:09:41;24.60;1.00
463;DHT22;218;51.902;9.542;2022-08-03T08:12:08;24.70;1.00
463;DHT22;218;51.902;9.542;2022-08-03T08:14:38;24.80;1.00
463;DHT22;218;51.902;9.542;2022-08-03T08:17:06;24.90;1.00
463;DHT22;218;51.902;9.542;2022-08-03T08:19:33;25.10;1.00
463;DHT22;218;51.902;9.542;2022-08-03T08:22:00;25.20;1.00
463;DHT22;218;51.902;9.542;2022-08-03T08:24:27;25.30;1.00
463;DHT22;218;51.902;9.542;2022-08-03T08:26:55;25.40;1.00
463;DHT22;218;51.902;9.542;2022-08-03T08:29:22;25.50;1.00
463;DHT22;218;51.902;9.542;2022-08-03T08:31:50;25.70;1.00
463;DHT22;218;51.902;9.542;2022-08-03T08:34:17;25.80;1.00
463;DHT22;218;51.902;9.542;2022-08-03T08:36:44;26.00;1.00
463;DHT22;218;51.902;9.542;2022-08-03T08:39:11;26.10;1.00
463;DHT22;218;51.902;9.542;2022-08-03T08:41:38;26.20;1.00
463;DHT22;218;51.902;9.542;2022-08-03T08:44:05;26.30;1.00
463;DHT22;218;51.902;9.542;2022-08-03T08:46:37;26.50;1.00
463;DHT22;218;51.902;9.542;2022-08-03T08:49:08;26.60;1.00
463;DHT22;218;51.902;9.542;2022-08-03T08:51:38;26.80;1.00
463;DHT22;218;51.902;9.542;2022-08-03T08:54:07;26.90;1.00
463;DHT22;218;51.902;9.542;2022-08-03T08:56:36;27.10;1.00
463;DHT22;218;51.902;9.542;2022-08-03T08:59:04;27.20;1.00
463;DHT22;218;51.902;9.542;2022-08-03T09:01:31;27.30;1.00
463;DHT22;218;51.902;9.542;2022-08-03T09:03:58;27.50;1.00
463;DHT22;218;51.902;9.542;2022-08-03T09:06:27;27.60;1.00
463;DHT22;218;51.902;9.542;2022-08-03T09:08:54;27.70;1.00
463;DHT22;218;51.902;9.542;2022-08-03T09:11:21;27.90;1.00
463;DHT22;218;51.902;9.542;2022-08-03T09:13:48;28.00;1.00
463;DHT22;218;51.902;9.542;2022-08-03T09:16:17;28.20;1.00
463;DHT22;218;51.902;9.542;2022-08-03T09:18:46;28.30;1.00
463;DHT22;218;51.902;9.542;2022-08-03T09:21:19;28.40;1.00
463;DHT22;218;51.902;9.542;2022-08-03T09:23:49;28.60;1.00
463;DHT22;218;51.902;9.542;2022-08-03T09:26:20;28.70;1.00
463;DHT22;218;51.902;9.542;2022-08-03T09:28:54;28.90;1.00
463;DHT22;218;51.902;9.542;2022-08-03T09:31:29;29.00;1.00
463;DHT22;218;51.902;9.542;2022-08-03T09:33:57;29.10;1.00
463;DHT22;218;51.902;9.542;2022-08-03T09:36:36;29.30;1.00
463;DHT22;218;51.902;9.542;2022-08-03T09:39:06;29.40;1.00
463;DHT22;218;51.902;9.542;2022-08-03T09:41:37;29.60;1.00
463;DHT22;218;51.902;9.542;2022-08-03T09:44:04;29.70;1.00
463;DHT22;218;51.902;9.542;2022-08-03T09:46:31;29.80;1.00
463;DHT22;218;51.902;9.542;2022-08-03T09:49:11;29.90;1.00
463;DHT22;218;51.902;9.542;2022-08-03T09:51:39;30.00;1.00
463;DHT22;218;51.902;9.542;2022-08-03T09:54:07;30.20;1.00
463;DHT22;218;51.902;9.542;2022-08-03T09:56:42;30.30;1.00
463;DHT22;218;51.902;9.542;2022-08-03T09:59:10;30.30;1.00
463;DHT22;218;51.902;9.542;2022-08-03T10:01:38;30.50;1.00
463;DHT22;218;51.902;9.542;2022-08-03T10:04:10;30.60;1.00
463;DHT22;218;51.902;9.542;2022-08-03T10:06:40;30.80;1.00
463;DHT22;218;51.902;9.542;2022-08-03T10:09:10;30.90;1.00
463;DHT22;218;51.902;9.542;2022-08-03T10:11:37;31.00;1.00
463;DHT22;218;51.902;9.542;2022-08-03T10:14:06;31.10;1.00
463;DHT22;218;51.902;9.542;2022-08-03T10:16:35;31.20;1.00
463;DHT22;218;51.902;9.542;2022-08-03T10:19:03;31.30;1.00
463;DHT22;218;51.902;9.542;2022-08-03T10:21:32;31.40;1.00
463;DHT22;218;51.902;9.542;2022-08-03T10:24:02;31.50;1.00
463;DHT22;218;51.902;9.542;2022-08-03T10:26:33;31.60;1.00
463;DHT22;218;51.902;9.542;2022-08-03T10:29:02;31.70;1.00
463;DHT22;218;51.902;9.542;2022-08-03T10:31:36;31.80;1.00
463;DHT22;218;51.902;9.542;2022-08-03T10:34:11;31.90;1.00
463;DHT22;218;51.902;9.542;2022-08-03T10:36:40;32.00;1.00
463;DHT22;218;51.902;9.542;2022-08-03T10:39:09;32.10;1.00
463;DHT22;218;51.902;9.542;2022-08-03T10:41:40;32.20;1.00
463;DHT22;218;51.902;9.542;2022-08-03T10:44:10;32.30;1.00
463;DHT22;218;51.902;9.542;2022-08-03T10:46:41;32.40;1.00
463;DHT22;218;51.902;9.542;2022-08-03T10:49:12;32.50;1.00
463;DHT22;218;51.902;9.542;2022-08-03T10:51:41;32.60;1.00
463;DHT22;218;51.902;9.542;2022-08-03T10:54:36;32.70;1.00
463;DHT22;218;51.902;9.542;2022-08-03T11:00:20;32.90;1.00
463;DHT22;218;51.902;9.542;2022-08-03T11:03:06;33.00;1.00
463;DHT22;218;51.902;9.542;2022-08-03T11:05:41;33.10;1.00
463;DHT22;218;51.902;9.542;2022-08-03T11:08:25;33.20;1.00
463;DHT22;218;51.902;9.542;2022-08-03T11:10:55;33.30;1.00
463;DHT22;218;51.902;9.542;2022-08-03T11:13:24;33.40;1.00
463;DHT22;218;51.902;9.542;2022-08-03T11:15:55;33.50;1.00
463;DHT22;218;51.902;9.542;2022-08-03T11:18:23;33.60;1.00
463;DHT22;218;51.902;9.542;2022-08-03T11:20:53;33.60;1.00
463;DHT22;218;51.902;9.542;2022-08-03T11:23:43;33.70;1.00
463;DHT22;218;51.902;9.542;2022-08-03T11:26:17;33.80;1.00
463;DHT22;218;51.902;9.542;2022-08-03T11:28:46;33.90;1.00
463;DHT22;218;51.902;9.542;2022-08-03T11:34:24;34.10;1.00
463;DHT22;218;51.902;9.542;2022-08-03T11:37:17;34.10;1.00
463;DHT22;218;51.902;9.542;2022-08-03T11:39:46;34.20;1.00
463;DHT22;218;51.902;9.542;2022-08-03T11:42:38;34.20;1.00
463;DHT22;218;51.902;9.542;2022-08-03T11:45:07;34.40;1.00
463;DHT22;218;51.902;9.542;2022-08-03T11:47:39;34.40;1.00
463;DHT22;218;51.902;9.542;2022-08-03T11:50:09;34.50;1.00
463;DHT22;218;51.902;9.542;2022-08-03T11:52:38;34.60;1.00
463;DHT22;218;51.902;9.542;2022-08-03T11:55:11;34.70;1.00
463;DHT22;218;51.902;9.542;2022-08-03T11:57:38;34.80;1.00
463;DHT22;218;51.902;9.542;2022-08-03T12:03:02;34.90;1.00
463;DHT22;218;51.902;9.542;2022-08-03T12:05:35;35.00;1.00
463;DHT22;218;51.902;9.542;2022-08-03T12:08:03;35.10;1.00
463;DHT22;218;51.902;9.542;2022-08-03T12:10:31;35.20;1.00
463;DHT22;218;51.902;9.542;2022-08-03T12:13:00;35.40;1.00
463;DHT22;218;51.902;9.542;2022-08-03T12:15:31;35.40;1.00
463;DHT22;218;51.902;9.542;2022-08-03T12:17:59;35.50;1.00
463;DHT22;218;51.902;9.542;2022-08-03T12:20:30;35.60;1.00
463;DHT22;218;51.902;9.542;2022-08-03T12:23:03;35.60;1.00
463;DHT22;218;51.902;9.542;2022-08-03T12:25:32;35.70;1.00
463;DHT22;218;51.902;9.542;2022-08-03T12:28:08;35.70;1.00
463;DHT22;218;51.902;9.542;2022-08-03T12:30:36;35.80;1.00
463;DHT22;218;51.902;9.542;2022-08-03T12:33:14;35.90;1.00
463;DHT22;218;51.902;9.542;2022-08-03T12:35:41;35.90;1.00
463;DHT22;218;51.902;9.542;2022-08-03T12:38:10;36.00;1.00
463;DHT22;218;51.902;9.542;2022-08-03T12:40:38;36.10;1.00
463;DHT22;218;51.902;9.542;2022-08-03T12:43:12;36.10;1.00
463;DHT22;218;51.902;9.542;2022-08-03T12:45:39;36.20;1.00
463;DHT22;218;51.902;9.542;2022-08-03T12:48:08;36.20;1.00
463;DHT22;218;51.902;9.542;2022-08-03T12:50:38;36.30;1.00
463;DHT22;218;51.902;9.542;2022-08-03T12:53:07;36.40;1.00
463;DHT22;218;51.902;9.542;2022-08-03T12:55:37;36.40;1.00
463;DHT22;218;51.902;9.542;2022-08-03T12:58:06;36.50;1.00
463;DHT22;218;51.902;9.542;2022-08-03T13:00:35;36.60;1.00
463;DHT22;218;51.902;9.542;2022-08-03T13:03:04;36.70;1.00
463;DHT22;218;51.902;9.542;2022-08-03T13:05:42;36.70;1.00
463;DHT22;218;51.902;9.542;2022-08-03T13:08:17;36.80;1.00
463;DHT22;218;51.902;9.542;2022-08-03T13:10:45;36.80;1.00
463;DHT22;218;51.902;9.542;2022-08-03T13:13:12;36.90;1.00
463;DHT22;218;51.902;9.542;2022-08-03T13:15:40;36.90;1.00
463;DHT22;218;51.902;9.542;2022-08-03T13:18:07;37.00;1.00
463;DHT22;218;51.902;9.542;2022-08-03T13:20:34;37.00;1.00
463;DHT22;218;51.902;9.542;2022-08-03T13:23:01;37.00;1.00
463;DHT22;218;51.902;9.542;2022-08-03T13:25:28;37.00;1.00
463;DHT22;218;51.902;9.542;2022-08-03T13:27:56;37.00;1.00
463;DHT22;218;51.902;9.542;2022-08-03T13:30:23;37.00;1.00
463;DHT22;218;51.902;9.542;2022-08-03T13:32:50;37.10;1.00
463;DHT22;218;51.902;9.542;2022-08-03T13:35:17;37.10;1.00
463;DHT22;218;51.902;9.542;2022-08-03T13:37:44;37.00;1.00
463;DHT22;218;51.902;9.542;2022-08-03T13:40:11;37.10;1.00
463;DHT22;218;51.902;9.542;2022-08-03T13:42:38;37.10;1.00
463;DHT22;218;51.902;9.542;2022-08-03T13:45:07;37.20;1.00
463;DHT22;218;51.902;9.542;2022-08-03T13:47:35;37.30;1.00
463;DHT22;218;51.902;9.542;2022-08-03T13:50:03;37.40;1.00
463;DHT22;218;51.902;9.542;2022-08-03T13:52:31;37.40;1.00
463;DHT22;218;51.902;9.542;2022-08-03T13:54:59;37.50;1.00
463;DHT22;218;51.902;9.542;2022-08-03T13:57:26;37.60;1.00
463;DHT22;218;51.902;9.542;2022-08-03T13:59:54;37.70;1.00
463;DHT22;218;51.902;9.542;2022-08-03T14:02:23;37.70;1.00
463;DHT22;218;51.902;9.542;2022-08-03T14:04:50;37.80;1.00
463;DHT22;218;51.902;9.542;2022-08-03T14:07:17;37.90;1.00
463;DHT22;218;51.902;9.542;2022-08-03T14:09:44;37.90;1.00
463;DHT22;218;51.902;9.542;2022-08-03T14:12:11;38.00;1.00
463;DHT22;218;51.902;9.542;2022-08-03T14:14:38;38.00;1.00
463;DHT22;218;51.902;9.542;2022-08-03T14:17:05;38.10;1.00
463;DHT22;218;51.902;9.542;2022-08-03T14:19:33;38.10;1.00
463;DHT22;218;51.902;9.542;2022-08-03T14:22:00;38.10;1.00
463;DHT22;218;51.902;9.542;2022-08-03T14:24:27;38.10;1.00
463;DHT22;218;51.902;9.542;2022-08-03T14:26:54;38.00;1.00
463;DHT22;218;51.902;9.542;2022-08-03T14:29:21;38.00;1.00
463;DHT22;218;51.902;9.542;2022-08-03T14:31:48;38.00;1.00
463;DHT22;218;51.902;9.542;2022-08-03T14:34:15;37.90;1.00
463;DHT22;218;51.902;9.542;2022-08-03T14:36:43;37.80;1.00
463;DHT22;218;51.902;9.542;2022-08-03T14:39:12;37.80;1.00
463;DHT22;218;51.902;9.542;2022-08-03T14:41:39;37.70;1.00
463;DHT22;218;51.902;9.542;2022-08-03T14:44:05;37.60;1.00
463;DHT22;218;51.902;9.542;2022-08-03T14:46:33;37.60;1.00
463;DHT22;218;51.902;9.542;2022-08-03T14:49:00;37.50;1.00
463;DHT22;218;51.902;9.542;2022-08-03T14:51:27;37.40;1.00
463;DHT22;218;51.902;9.542;2022-08-03T14:53:55;37.40;1.00
463;DHT22;218;51.902;9.542;2022-08-03T14:56:22;37.40;1.00
463;DHT22;218;51.902;9.542;2022-08-03T14:58:49;37.30;1.00
463;DHT22;218;51.902;9.542;2022-08-03T15:01:16;37.20;1.00
463;DHT22;218;51.902;9.542;2022-08-03T15:03:43;37.20;1.00
463;DHT22;218;51.902;9.542;2022-08-03T15:06:11;37.10;1.00
463;DHT22;218;51.902;9.542;2022-08-03T15:08:38;37.10;1.00
463;DHT22;218;51.902;9.542;2022-08-03T15:11:06;37.00;1.00
463;DHT22;218;51.902;9.542;2022-08-03T15:13:33;37.00;1.00
463;DHT22;218;51.902;9.542;2022-08-03T15:16:00;37.00;1.00
463;DHT22;218;51.902;9.542;2022-08-03T15:18:27;37.00;1.00
463;DHT22;218;51.902;9.542;2022-08-03T15:20:54;37.00;1.00
463;DHT22;218;51.902;9.542;2022-08-03T15:23:21;37.00;1.00
463;DHT22;218;51.902;9.542;2022-08-03T15:25:48;37.10;1.00
463;DHT22;218;51.902;9.542;2022-08-03T15:28:16;37.00;1.00
463;DHT22;218;51.902;9.542;2022-08-03T15:30:45;37.10;1.00
463;DHT22;218;51.902;9.542;2022-08-03T15:33:11;37.10;1.00
463;DHT22;218;51.902;9.542;2022-08-03T15:35:38;37.10;1.00
463;DHT22;218;51.902;9.542;2022-08-03T15:38:08;37.00;1.00
463;DHT22;218;51.902;9.542;2022-08-03T15:40:35;37.10;1.00
463;DHT22;218;51.902;9.542;2022-08-03T15:43:03;37.00;1.00
463;DHT22;218;51.902;9.542;2022-08-03T15:45:31;37.00;1.00
463;DHT22;218;51.902;9.542;2022-08-03T15:47:58;37.00;1.00
463;DHT22;218;51.902;9.542;2022-08-03T15:50:25;37.00;1.00
463;DHT22;218;51.902;9.542;2022-08-03T15:52:52;37.00;1.00
463;DHT22;218;51.902;9.542;2022-08-03T15:55:21;37.00;1.00
463;DHT22;218;51.902;9.542;2022-08-03T15:57:48;37.00;1.00
463;DHT22;218;51.902;9.542;2022-08-03T16:00:17;37.00;1.00
463;DHT22;218;51.902;9.542;2022-08-03T16:02:45;36.90;1.00
463;DHT22;218;51.902;9.542;2022-08-03T16:05:12;37.00;1.00
463;DHT22;218;51.902;9.542;2022-08-03T16:07:39;37.00;1.00
463;DHT22;218;51.902;9.542;2022-08-03T16:10:11;37.00;1.00
463;DHT22;218;51.902;9.542;2022-08-03T16:12:38;36.90;1.00
463;DHT22;218;51.902;9.542;2022-08-03T16:15:07;36.90;1.00
463;DHT22;218;51.902;9.542;2022-08-03T16:17:34;36.80;1.00
463;DHT22;218;51.902;9.542;2022-08-03T16:20:03;36.90;1.00
463;DHT22;218;51.902;9.542;2022-08-03T16:22:31;36.80;1.00
463;DHT22;218;51.902;9.542;2022-08-03T16:24:59;36.80;1.00
463;DHT22;218;51.902;9.542;2022-08-03T16:27:26;36.80;1.00
463;DHT22;218;51.902;9.542;2022-08-03T16:29:53;36.80;1.00
463;DHT22;218;51.902;9.542;2022-08-03T16:32:20;36.70;1.00
463;DHT22;218;51.902;9.542;2022-08-03T16:34:47;36.70;1.00
463;DHT22;218;51.902;9.542;2022-08-03T16:37:15;36.70;1.00
463;DHT22;218;51.902;9.542;2022-08-03T16:39:42;36.60;1.00
463;DHT22;218;51.902;9.542;2022-08-03T16:42:09;36.60;1.00
463;DHT22;218;51.902;9.542;2022-08-03T16:44:36;36.50;1.00
463;DHT22;218;51.902;9.542;2022-08-03T16:47:03;36.50;1.00
463;DHT22;218;51.902;9.542;2022-08-03T16:49:30;36.40;1.00
463;DHT22;218;51.902;9.542;2022-08-03T16:51:57;36.40;1.00
463;DHT22;218;51.902;9.542;2022-08-03T16:54:25;36.30;1.00
463;DHT22;218;51.902;9.542;2022-08-03T16:56:52;36.20;1.00
463;DHT22;218;51.902;9.542;2022-08-03T16:59:19;36.20;1.00
463;DHT22;218;51.902;9.542;2022-08-03T17:01:47;36.10;1.00
463;DHT22;218;51.902;9.542;2022-08-03T17:04:14;36.00;1.00
463;DHT22;218;51.902;9.542;2022-08-03T17:06:41;36.00;1.00
463;DHT22;218;51.902;9.542;2022-08-03T17:09:11;35.90;1.00
463;DHT22;218;51.902;9.542;2022-08-03T17:11:41;35.90;1.00
463;DHT22;218;51.902;9.542;2022-08-03T17:14:08;35.80;1.00
463;DHT22;218;51.902;9.542;2022-08-03T17:16:36;35.80;1.00
463;DHT22;218;51.902;9.542;2022-08-03T17:19:04;35.70;1.00